Time;durP1;ratioP1;P1;durP2;ratioP2;P2;SDS_P1;SDS_P2;PMS_P1;PMS_P2;Temp;Humidity;BMP_temperature;BMP_pressure;BME280_temperature;BME280_humidity;BME280_pressure;Samples;Min_cycle;Max_cycle;Signal;HPM_P1;HPM_P2
2023/01/19 00:01:25;;;;;;;20.30;15.63;;;1.20;99.90;;;;;;4994162;28;20668;-66
2023/01/19 00:03:51;;;;;;;19.00;14.77;;;1.20;99.90;;;;;;4994205;28;20215;-66
2023/01/19 00:06:17;;;;;;;18.73;14.93;;;1.20;99.90;;;;;;4994254;28;20177;-67
2023/01/19 00:08:44;;;;;;;19.93;15.17;;;1.20;99.90;;;;;;4994205;28;20176;-67
2023/01/19 00:11:11;;;;;;;21.90;15.47;;;1.20;99.90;;;;;;4994279;28;20704;-66
2023/01/19 00:13:38;;;;;;;17.80;14.03;;;1.20;99.90;;;;;;4994307;28;20188;-66
2023/01/19 00:16:04;;;;;;;21.93;15.87;;;1.20;99.90;;;;;;5009139;28;20191;-67
2023/01/19 00:18:30;;;;;;;17.07;14.60;;;1.20;99.90;;;;;;4994203;28;20188;-67
2023/01/19 00:20:56;;;;;;;19.03;14.70;;;1.20;99.90;;;;;;4994127;28;20596;-67
2023/01/19 00:23:22;;;;;;;22.37;15.47;;;1.20;99.90;;;;;;4994478;28;20691;-66
2023/01/19 00:25:49;;;;;;;19.40;15.07;;;1.20;99.90;;;;;;4994251;28;20176;-66
2023/01/19 00:28:17;;;;;;;19.33;14.73;;;1.20;99.90;;;;;;4994171;28;20176;-66
2023/01/19 00:30:44;;;;;;;18.70;14.67;;;1.20;99.90;;;;;;4995435;28;20177;-66
2023/01/19 00:33:13;;;;;;;16.27;14.57;;;1.20;99.90;;;;;;5012250;28;20240;-66
2023/01/19 00:35:41;;;;;;;19.23;14.53;;;1.30;99.90;;;;;;5014044;28;20173;-67
2023/01/19 00:38:07;;;;;;;19.73;15.53;;;1.20;99.90;;;;;;4997281;28;20200;-66
2023/01/19 00:40:33;;;;;;;17.73;15.80;;;1.30;99.90;;;;;;4997179;28;20270;-66
2023/01/19 00:42:59;;;;;;;18.53;14.77;;;1.30;99.90;;;;;;4996950;28;20725;-66
2023/01/19 00:45:25;;;;;;;18.37;15.30;;;1.30;99.90;;;;;;4996578;28;20545;-67
2023/01/19 00:47:55;;;;;;;21.83;15.37;;;1.30;99.90;;;;;;4997206;28;20185;-67
2023/01/19 00:50:25;;;;;;;19.57;14.80;;;1.30;99.90;;;;;;4995576;28;20184;-67
2023/01/19 00:52:52;;;;;;;17.90;14.60;;;1.30;99.90;;;;;;4996295;28;20652;-67
2023/01/19 00:55:18;;;;;;;17.67;14.50;;;1.40;99.90;;;;;;5001393;28;20198;-67
2023/01/19 00:57:44;;;;;;;19.27;15.10;;;1.40;99.90;;;;;;5001657;28;20275;-67
2023/01/19 01:00:15;;;;;;;17.63;14.83;;;1.40;99.90;;;;;;4999622;28;20251;-66
2023/01/19 01:02:43;;;;;;;17.80;15.20;;;1.30;99.90;;;;;;4998049;28;20288;-66
2023/01/19 01:05:09;;;;;;;16.57;13.93;;;1.40;99.90;;;;;;4998462;28;20173;-66
2023/01/19 01:07:44;;;;;;;16.87;14.53;;;1.40;99.90;;;;;;4997416;28;20180;-67
2023/01/19 01:10:23;;;;;;;17.13;15.10;;;1.40;99.90;;;;;;4997031;28;20164;-66
2023/01/19 01:12:49;;;;;;;18.57;15.23;;;1.30;99.90;;;;;;5011781;28;20246;-66
2023/01/19 01:15:17;;;;;;;18.00;14.63;;;1.40;99.90;;;;;;4994997;28;20192;-66
2023/01/19 01:17:46;;;;;;;20.17;16.70;;;1.40;99.90;;;;;;5011533;28;20276;-66
2023/01/19 01:20:17;;;;;;;22.40;17.50;;;1.40;99.90;;;;;;4997065;28;20173;-66
2023/01/19 01:22:49;;;;;;;20.17;15.53;;;1.40;99.90;;;;;;4997211;28;20689;-66
2023/01/19 01:25:17;;;;;;;17.13;15.27;;;1.40;99.90;;;;;;4997188;28;20630;-66
2023/01/19 01:27:43;;;;;;;17.53;15.47;;;1.40;99.90;;;;;;4997166;28;20176;-66
2023/01/19 01:30:11;;;;;;;20.53;15.43;;;1.40;99.90;;;;;;4996451;28;20180;-67
2023/01/19 01:32:37;;;;;;;20.67;15.53;;;1.40;99.90;;;;;;5011127;28;20571;-67
2023/01/19 01:35:03;;;;;;;18.47;15.23;;;1.40;99.90;;;;;;4994805;28;20187;-67
2023/01/19 01:37:29;;;;;;;20.03;16.43;;;1.40;99.90;;;;;;4995993;28;20646;-66
2023/01/19 01:39:55;;;;;;;19.93;15.87;;;1.40;99.90;;;;;;4995819;28;20529;-67
2023/01/19 01:42:27;;;;;;;17.43;15.07;;;1.50;99.90;;;;;;4994022;28;20259;-67
2023/01/19 01:44:55;;;;;;;17.97;14.73;;;1.50;99.90;;;;;;5010585;28;20200;-67
2023/01/19 01:47:37;;;;;;;18.87;14.97;;;1.50;99.90;;;;;;4994522;28;20180;-67
2023/01/19 01:50:16;;;;;;;21.03;15.70;;;1.50;99.90;;;;;;4995909;28;20625;-67
2023/01/19 01:53:03;;;;;;;23.20;15.23;;;1.50;99.90;;;;;;4995741;28;20169;-66
2023/01/19 01:55:31;;;;;;;19.70;15.33;;;1.50;99.90;;;;;;5010724;28;20180;-66
2023/01/19 01:58:01;;;;;;;17.87;16.00;;;1.60;99.90;;;;;;4995380;28;20232;-67
2023/01/19 02:02:49;;;;;;;17.73;15.60;;;1.60;99.90;;;;;;4995364;28;20260;-67
2023/01/19 02:03:14;;;;;;;17.73;15.67;;;1.60;99.90;;;;;;4995052;28;20220;-67
2023/01/19 02:05:41;;;;;;;16.70;14.97;;;1.60;99.90;;;;;;4995653;28;20165;-66
2023/01/19 02:13:43;;;;;;;23.30;16.03;;;1.60;99.90;;;;;;4995724;28;20264;-67
2023/01/19 02:16:10;;;;;;;22.50;16.10;;;1.60;99.90;;;;;;4995018;28;20173;-66
2023/01/19 02:18:36;;;;;;;23.43;15.47;;;1.70;99.90;;;;;;4995284;28;20240;-67
2023/01/19 02:21:03;;;;;;;20.53;16.30;;;1.70;99.90;;;;;;4993765;28;20231;-66
2023/01/19 02:23:32;;;;;;;20.40;15.57;;;1.70;99.90;;;;;;4993627;28;20263;-67
2023/01/19 02:25:59;;;;;;;18.37;14.40;;;1.70;99.90;;;;;;4995154;28;20176;-69
2023/01/19 02:28:26;;;;;;;19.33;14.60;;;1.70;99.90;;;;;;4994833;28;20183;-66
2023/01/19 02:30:52;;;;;;;17.53;15.23;;;1.70;99.90;;;;;;4994716;28;20207;-67
2023/01/19 02:33:18;;;;;;;17.30;14.67;;;1.80;99.90;;;;;;4994603;28;20278;-67
2023/01/19 02:35:44;;;;;;;20.73;16.30;;;1.80;99.90;;;;;;4993669;28;20176;-67
2023/01/19 02:38:12;;;;;;;15.80;14.00;;;1.80;99.90;;;;;;4993501;28;20180;-66
2023/01/19 02:40:41;;;;;;;18.63;15.40;;;1.80;99.90;;;;;;4994874;28;20185;-66
2023/01/19 02:43:08;;;;;;;16.83;13.60;;;1.80;99.90;;;;;;4994347;28;20216;-67
2023/01/19 02:45:36;;;;;;;20.40;13.87;;;1.80;99.90;;;;;;4994392;28;20180;-66
2023/01/19 02:48:04;;;;;;;16.83;13.77;;;1.80;99.90;;;;;;5009806;28;20176;-67
2023/01/19 02:50:44;;;;;;;17.17;14.03;;;1.80;99.90;;;;;;4995386;28;20176;-67
2023/01/19 02:53:16;;;;;;;19.10;14.53;;;1.80;99.90;;;;;;4993684;28;20279;-67
2023/01/19 02:55:47;;;;;;;18.53;14.77;;;1.80;99.90;;;;;;4994538;28;20642;-66
2023/01/19 02:58:31;;;;;;;17.90;13.63;;;1.80;99.90;;;;;;4994403;28;20172;-66
2023/01/19 03:01:21;;;;;;;14.87;13.33;;;1.80;99.90;;;;;;4993046;28;20552;-66
2023/01/19 03:03:58;;;;;;;18.10;13.97;;;1.80;99.90;;;;;;4994861;28;20238;-67
2023/01/19 03:06:41;;;;;;;15.60;12.67;;;1.80;99.90;;;;;;4994667;28;20164;-67
2023/01/19 03:09:18;;;;;;;16.97;13.83;;;1.80;99.90;;;;;;4994288;28;20532;-66
2023/01/19 03:11:52;;;;;;;14.37;12.60;;;1.70;99.90;;;;;;4994191;28;20160;-66
2023/01/19 03:14:26;;;;;;;16.23;13.60;;;1.70;99.90;;;;;;4994137;28;20191;-66
2023/01/19 03:16:56;;;;;;;19.00;13.47;;;1.70;99.90;;;;;;4994118;28;20549;-67
2023/01/19 03:19:35;;;;;;;16.53;13.03;;;1.70;99.90;;;;;;4994469;28;20160;-66
2023/01/19 03:22:06;;;;;;;17.10;12.67;;;1.70;99.90;;;;;;4992896;28;20208;-67
2023/01/19 03:24:37;;;;;;;17.10;13.27;;;1.70;99.90;;;;;;5009182;28;20573;-65
2023/01/19 03:27:12;;;;;;;16.13;12.30;;;1.70;99.90;;;;;;4994269;28;20157;-65
2023/01/19 03:29:41;;;;;;;14.97;13.47;;;1.70;99.90;;;;;;4994564;28;20188;-67
2023/01/19 03:32:12;;;;;;;14.87;12.20;;;1.80;99.90;;;;;;4994082;28;20259;-65
2023/01/19 03:34:39;;;;;;;17.53;13.27;;;1.80;99.90;;;;;;4992991;28;20760;-65
2023/01/19 03:37:07;;;;;;;18.10;12.70;;;1.80;99.90;;;;;;4994361;28;20180;-66
2023/01/19 03:39:33;;;;;;;15.43;12.50;;;1.80;99.90;;;;;;4994357;28;20189;-67
2023/01/19 03:42:05;;;;;;;18.43;12.63;;;1.80;99.90;;;;;;4993967;28;20208;-66
2023/01/19 03:44:36;;;;;;;17.07;13.23;;;1.80;99.90;;;;;;4993791;28;20204;-66
2023/01/19 03:47:02;;;;;;;15.80;12.33;;;1.80;99.90;;;;;;4993951;28;20189;-66
2023/01/19 03:49:30;;;;;;;13.87;12.47;;;1.80;99.90;;;;;;5008992;28;20641;-68
2023/01/19 03:51:57;;;;;;;18.00;13.43;;;1.80;99.90;;;;;;4993984;28;20190;-66
2023/01/19 03:54:23;;;;;;;17.40;12.30;;;1.80;99.90;;;;;;4993764;28;20282;-66
2023/01/19 03:56:51;;;;;;;14.57;13.03;;;1.80;99.90;;;;;;4993811;28;20176;-66
2023/01/19 03:59:18;;;;;;;17.57;13.37;;;1.80;99.90;;;;;;4994110;28;20584;-66
2023/01/19 04:01:45;;;;;;;14.63;13.13;;;1.80;99.90;;;;;;4992696;28;20195;-66
2023/01/19 04:04:12;;;;;;;15.53;13.03;;;1.80;99.90;;;;;;4994913;28;20192;-66
2023/01/19 04:06:38;;;;;;;15.30;12.73;;;1.80;99.90;;;;;;4997571;28;20219;-66
2023/01/19 04:09:04;;;;;;;18.17;13.07;;;1.80;99.90;;;;;;5012624;28;20179;-67
2023/01/19 04:11:30;;;;;;;14.90;12.57;;;1.80;99.90;;;;;;4997563;28;20181;-66
2023/01/19 04:13:56;;;;;;;16.13;12.67;;;1.90;99.90;;;;;;4997258;28;20207;-66
2023/01/19 04:16:22;;;;;;;13.37;11.97;;;1.90;99.90;;;;;;4997458;28;20196;-66
2023/01/19 04:18:48;;;;;;;19.33;12.90;;;1.90;99.90;;;;;;4997501;28;20172;-66
2023/01/19 04:21:15;;;;;;;16.07;12.77;;;1.90;99.90;;;;;;4995862;28;20191;-66
2023/01/19 04:23:41;;;;;;;13.13;11.73;;;1.90;99.90;;;;;;4997304;28;20215;-66
2023/01/19 04:26:07;;;;;;;13.80;12.13;;;1.90;99.90;;;;;;4997299;28;20176;-66
2023/01/19 04:28:35;;;;;;;13.33;11.57;;;1.90;99.90;;;;;;4997156;28;20251;-66
2023/01/19 04:31:02;;;;;;;17.30;12.47;;;1.90;99.90;;;;;;4996980;28;20172;-66
2023/01/19 04:33:28;;;;;;;13.53;12.13;;;2.00;99.90;;;;;;4997204;28;20616;-66
2023/01/19 04:35:54;;;;;;;15.93;12.17;;;2.00;99.90;;;;;;4996927;28;20203;-66
2023/01/19 04:38:21;;;;;;;15.97;12.70;;;2.00;99.90;;;;;;4995581;28;20185;-67
2023/01/19 04:40:51;;;;;;;17.47;12.73;;;2.00;99.90;;;;;;5012241;28;20239;-65
2023/01/19 04:43:18;;;;;;;13.30;11.90;;;2.00;99.90;;;;;;4996527;28;20205;-65
2023/01/19 04:45:45;;;;;;;14.47;12.77;;;2.00;99.90;;;;;;4996514;28;20203;-65
2023/01/19 04:48:11;;;;;;;17.27;12.73;;;2.00;99.90;;;;;;4996690;28;20581;-64
2023/01/19 04:50:38;;;;;;;14.77;11.87;;;1.90;99.90;;;;;;4996738;28;20177;-64
2023/01/19 04:53:03;;;;;;;17.53;12.63;;;1.90;99.90;;;;;;5011714;28;20263;-64
2023/01/19 04:55:29;;;;;;;15.27;11.90;;;1.90;99.90;;;;;;4996552;28;20181;-64
2023/01/19 04:57:55;;;;;;;14.90;12.60;;;2.00;99.90;;;;;;4996807;28;20177;-64
2023/01/19 05:00:22;;;;;;;14.23;11.37;;;2.00;99.90;;;;;;4996401;28;20183;-64
2023/01/19 05:02:48;;;;;;;14.30;12.00;;;1.90;99.90;;;;;;4996803;28;20203;-64
2023/01/19 05:05:15;;;;;;;14.43;11.77;;;2.00;99.90;;;;;;4996447;28;20180;-64
2023/01/19 05:07:42;;;;;;;12.90;11.63;;;2.00;99.90;;;;;;4996463;28;20239;-64
2023/01/19 05:10:08;;;;;;;18.70;12.33;;;1.90;99.90;;;;;;4996593;28;20172;-64
2023/01/19 05:12:35;;;;;;;17.47;11.93;;;1.90;99.90;;;;;;4996145;28;20578;-65
2023/01/19 05:15:01;;;;;;;13.20;11.97;;;1.80;99.90;;;;;;4996363;28;20279;-65
2023/01/19 05:17:27;;;;;;;14.97;13.03;;;1.60;99.90;;;;;;4995741;28;20261;-64
2023/01/19 05:19:52;;;;;;;13.33;12.03;;;1.40;99.90;;;;;;4994842;28;20268;-65
2023/01/19 05:22:18;;;;;;;19.67;13.43;;;1.20;99.90;;;;;;4995755;28;20619;-65
2023/01/19 05:24:44;;;;;;;13.80;11.60;;;1.10;99.90;;;;;;5010852;28;20737;-65
2023/01/19 05:27:10;;;;;;;16.80;12.20;;;1.00;99.90;;;;;;4995807;28;20176;-65
2023/01/19 05:29:35;;;;;;;15.30;12.80;;;0.90;99.90;;;;;;4994453;28;20181;-65
2023/01/19 05:32:01;;;;;;;15.00;12.70;;;0.80;99.90;;;;;;4995533;28;20169;-65
2023/01/19 05:34:27;;;;;;;14.40;12.10;;;0.80;99.90;;;;;;4995607;28;20193;-65
2023/01/19 05:36:53;;;;;;;14.57;12.77;;;0.80;99.90;;;;;;4994411;28;20264;-65
2023/01/19 05:39:19;;;;;;;14.80;12.83;;;0.80;99.90;;;;;;4995528;28;20181;-65
2023/01/19 05:41:45;;;;;;;16.97;13.53;;;0.80;99.90;;;;;;4994163;28;20184;-64
2023/01/19 05:44:11;;;;;;;17.63;12.80;;;0.80;99.90;;;;;;5010261;28;20208;-65
2023/01/19 05:46:38;;;;;;;14.97;13.13;;;0.80;99.90;;;;;;5010304;28;20555;-65
2023/01/19 05:49:04;;;;;;;15.77;13.43;;;0.80;99.90;;;;;;4994099;28;20176;-65
2023/01/19 05:51:34;;;;;;;13.77;12.43;;;0.70;99.90;;;;;;4995567;28;20180;-65
2023/01/19 05:54:00;;;;;;;17.57;14.07;;;0.60;99.90;;;;;;4995174;28;20199;-65
2023/01/19 05:56:26;;;;;;;14.73;13.17;;;0.60;99.90;;;;;;4995558;28;20181;-65
2023/01/19 05:58:52;;;;;;;16.30;13.90;;;0.60;99.90;;;;;;5010223;28;20188;-65
2023/01/19 06:01:17;;;;;;;20.00;14.20;;;0.60;99.90;;;;;;4995019;28;20260;-65
2023/01/19 06:03:43;;;;;;;21.83;14.17;;;0.60;99.90;;;;;;4995254;28;20212;-65
2023/01/19 06:06:09;;;;;;;16.77;14.63;;;0.60;99.90;;;;;;4995174;28;20556;-63
2023/01/19 06:08:35;;;;;;;17.13;13.13;;;0.60;99.90;;;;;;4995215;28;20176;-64
2023/01/19 06:11:01;;;;;;;17.23;14.83;;;0.60;99.90;;;;;;4994988;28;20164;-64
2023/01/19 06:13:26;;;;;;;19.27;14.77;;;0.60;99.90;;;;;;4994966;28;20200;-64
2023/01/19 06:15:57;;;;;;;16.80;14.27;;;0.60;99.90;;;;;;4993401;28;20192;-64
2023/01/19 06:18:23;;;;;;;23.50;14.97;;;0.60;99.90;;;;;;4995136;28;20165;-64
2023/01/19 06:20:49;;;;;;;20.60;14.10;;;0.60;99.90;;;;;;4993564;28;20168;-64
2023/01/19 06:23:15;;;;;;;20.43;14.63;;;0.60;99.90;;;;;;4994725;28;20211;-64
2023/01/19 06:25:41;;;;;;;20.23;15.27;;;0.60;99.90;;;;;;5009856;28;20203;-64
2023/01/19 06:28:06;;;;;;;19.77;14.70;;;0.60;99.90;;;;;;4994610;28;20168;-64
2023/01/19 06:30:32;;;;;;;20.70;15.10;;;0.60;99.90;;;;;;4994422;28;20177;-64
2023/01/19 06:32:58;;;;;;;17.03;13.43;;;0.60;99.90;;;;;;4994456;28;20193;-66
2023/01/19 06:35:31;;;;;;;18.97;14.87;;;0.50;99.90;;;;;;5009605;28;20255;-65
2023/01/19 06:37:57;;;;;;;16.47;14.37;;;0.50;99.90;;;;;;4995711;28;20169;-64
2023/01/19 06:40:25;;;;;;;17.93;14.43;;;0.40;99.90;;;;;;4995131;28;20168;-65
2023/01/19 06:42:51;;;;;;;20.60;14.27;;;0.40;99.90;;;;;;4992244;28;20232;-65
2023/01/19 06:45:17;;;;;;;16.87;14.03;;;0.40;99.90;;;;;;4994456;28;20176;-65
2023/01/19 06:47:46;;;;;;;14.53;13.00;;;0.40;99.90;;;;;;4995175;28;20176;-65
2023/01/19 06:50:12;;;;;;;15.60;13.90;;;0.40;99.90;;;;;;4994423;28;20177;-65
2023/01/19 06:52:41;;;;;;;16.97;13.70;;;0.40;99.90;;;;;;4993064;28;20172;-65
2023/01/19 06:55:10;;;;;;;15.67;13.00;;;0.40;99.90;;;;;;4994960;28;20175;-65
2023/01/19 06:57:37;;;;;;;15.27;13.27;;;0.40;99.90;;;;;;5010297;28;20684;-66
2023/01/19 07:00:06;;;;;;;15.77;13.20;;;0.40;99.90;;;;;;4994568;28;20180;-65
2023/01/19 07:02:36;;;;;;;15.10;12.87;;;0.40;99.90;;;;;;4994777;28;20773;-65
2023/01/19 07:05:02;;;;;;;20.73;14.10;;;0.40;99.90;;;;;;5009675;28;20180;-66
2023/01/19 07:07:28;;;;;;;17.20;13.83;;;0.40;99.90;;;;;;4994607;28;20161;-66
2023/01/19 07:09:54;;;;;;;16.87;13.87;;;0.40;99.90;;;;;;5009468;28;20553;-66
2023/01/19 07:12:21;;;;;;;17.60;13.50;;;0.50;99.90;;;;;;4994202;28;20262;-66
2023/01/19 07:14:48;;;;;;;15.80;12.63;;;0.50;99.90;;;;;;4994170;28;20250;-66
2023/01/19 07:17:14;;;;;;;13.30;11.97;;;0.40;99.90;;;;;;4992976;28;20638;-64
2023/01/19 07:19:39;;;;;;;15.37;12.33;;;0.40;99.90;;;;;;4993942;28;20212;-65
2023/01/19 07:22:05;;;;;;;12.93;11.57;;;0.40;99.90;;;;;;5008985;28;20234;-65
2023/01/19 07:24:32;;;;;;;14.00;11.53;;;0.40;99.90;;;;;;4994050;28;20271;-65
2023/01/19 07:26:58;;;;;;;15.00;13.33;;;0.50;99.90;;;;;;4994351;28;20169;-65
2023/01/19 07:29:24;;;;;;;15.70;12.07;;;0.50;99.90;;;;;;4992621;28;20165;-65
2023/01/19 07:31:53;;;;;;;12.90;11.43;;;0.50;99.90;;;;;;5008470;28;20259;-65
2023/01/19 07:34:19;;;;;;;13.37;11.60;;;0.50;99.90;;;;;;4992404;28;20687;-65
2023/01/19 07:36:45;;;;;;;14.40;12.00;;;0.50;99.90;;;;;;4992756;28;20651;-65
2023/01/19 07:39:11;;;;;;;13.10;11.47;;;0.50;99.90;;;;;;4993740;28;20669;-65
2023/01/19 07:41:37;;;;;;;13.13;11.83;;;0.40;99.90;;;;;;4997805;28;20160;-65
2023/01/19 07:44:03;;;;;;;14.03;12.47;;;0.50;99.90;;;;;;4998411;28;20212;-65
2023/01/19 07:46:28;;;;;;;13.47;12.07;;;0.50;99.90;;;;;;4997633;28;20540;-64
2023/01/19 07:48:55;;;;;;;14.67;12.30;;;0.50;99.90;;;;;;5012847;28;20173;-65
2023/01/19 07:51:21;;;;;;;14.63;12.23;;;0.50;99.90;;;;;;4996410;28;20268;-65
2023/01/19 07:53:49;;;;;;;12.10;10.90;;;0.50;99.90;;;;;;4996270;28;20283;-65
2023/01/19 07:56:15;;;;;;;12.80;11.50;;;0.50;99.90;;;;;;4998271;28;20614;-65
2023/01/19 07:58:40;;;;;;;12.50;11.40;;;0.50;99.90;;;;;;4998523;28;20176;-65
2023/01/19 08:01:08;;;;;;;12.43;11.13;;;0.50;99.90;;;;;;4997686;28;20533;-65
2023/01/19 08:03:34;;;;;;;11.30;10.20;;;0.50;99.90;;;;;;5013206;28;20240;-65
2023/01/19 08:06:01;;;;;;;11.57;10.37;;;0.50;99.90;;;;;;5012644;28;20203;-65
2023/01/19 08:08:29;;;;;;;11.27;10.17;;;0.50;99.90;;;;;;4997587;28;20192;-65
2023/01/19 08:10:54;;;;;;;13.17;10.43;;;0.60;99.90;;;;;;4997331;28;20153;-65
2023/01/19 08:13:21;;;;;;;12.73;11.30;;;0.60;99.90;;;;;;4997286;28;20211;-65
2023/01/19 08:15:51;;;;;;;12.90;11.17;;;0.60;99.90;;;;;;4995753;28;20654;-65
2023/01/19 08:18:17;;;;;;;12.50;11.20;;;0.60;99.90;;;;;;4997219;28;20234;-65
2023/01/19 08:20:43;;;;;;;11.90;10.70;;;0.70;99.90;;;;;;4995852;28;20643;-65
2023/01/19 08:23:09;;;;;;;12.33;10.63;;;0.70;99.90;;;;;;4996862;28;20339;-65
2023/01/19 08:25:43;;;;;;;12.77;11.37;;;0.60;99.90;;;;;;4996968;28;20168;-65
2023/01/19 08:28:11;;;;;;;13.50;11.60;;;0.70;99.90;;;;;;4997475;28;20160;-65
2023/01/19 08:30:38;;;;;;;14.03;12.33;;;0.60;99.90;;;;;;5011892;28;20208;-65
2023/01/19 08:33:08;;;;;;;13.80;12.40;;;0.70;99.90;;;;;;4996839;28;20193;-65
2023/01/19 08:35:36;;;;;;;16.20;12.50;;;0.70;99.90;;;;;;4995555;28;20181;-65
2023/01/19 08:38:04;;;;;;;20.47;13.47;;;0.70;99.90;;;;;;5011900;28;20169;-65
2023/01/19 08:40:34;;;;;;;18.17;14.77;;;0.70;99.90;;;;;;5011845;28;20185;-65
2023/01/19 08:43:03;;;;;;;18.07;14.17;;;0.80;99.90;;;;;;4996450;28;20211;-65
2023/01/19 08:45:32;;;;;;;20.23;15.50;;;0.80;99.90;;;;;;4996363;28;20188;-65
2023/01/19 08:47:58;;;;;;;22.00;15.90;;;0.80;99.90;;;;;;4996637;28;20162;-65
2023/01/19 08:50:25;;;;;;;22.50;15.20;;;0.80;99.90;;;;;;4995795;28;20172;-65
2023/01/19 08:52:51;;;;;;;26.07;16.63;;;0.80;99.90;;;;;;4996599;28;20585;-65
2023/01/19 08:55:17;;;;;;;26.53;17.50;;;0.80;99.90;;;;;;4996713;28;20691;-65
2023/01/19 08:57:43;;;;;;;29.30;18.00;;;0.80;99.90;;;;;;4996770;28;20183;-65
2023/01/19 09:00:09;;;;;;;29.77;17.73;;;0.90;99.90;;;;;;4996472;28;20172;-66
2023/01/19 09:02:35;;;;;;;25.07;18.90;;;0.90;99.90;;;;;;4994979;28;20694;-65
2023/01/19 09:05:03;;;;;;;31.60;19.87;;;0.90;99.90;;;;;;4996663;28;20161;-65
2023/01/19 09:07:29;;;;;;;32.57;19.57;;;1.00;99.90;;;;;;5011370;28;20227;-65
2023/01/19 09:09:55;;;;;;;29.80;20.17;;;1.00;99.90;;;;;;4996290;28;20169;-65
2023/01/19 09:12:21;;;;;;;31.83;20.30;;;1.10;99.90;;;;;;4996275;28;20617;-65
2023/01/19 09:14:46;;;;;;;32.83;20.50;;;1.10;99.90;;;;;;4996045;28;20684;-65
2023/01/19 09:17:13;;;;;;;31.03;20.77;;;1.00;99.90;;;;;;4996099;28;20648;-65
2023/01/19 09:19:40;;;;;;;33.93;20.73;;;1.00;99.90;;;;;;4996335;28;20163;-65
2023/01/19 09:22:06;;;;;;;32.33;20.77;;;1.10;99.90;;;;;;4996205;28;20172;-65
2023/01/19 09:24:33;;;;;;;40.67;22.60;;;1.10;99.90;;;;;;4996182;28;20184;-65
2023/01/19 09:26:59;;;;;;;34.83;21.77;;;1.10;99.90;;;;;;4994605;28;20172;-65
2023/01/19 09:29:25;;;;;;;35.80;22.10;;;1.10;99.90;;;;;;5010918;28;20569;-65
2023/01/19 09:31:51;;;;;;;35.37;23.17;;;1.10;99.90;;;;;;4995579;28;20183;-65
2023/01/19 09:34:17;;;;;;;34.60;21.77;;;1.10;99.90;;;;;;4995612;28;20197;-65
2023/01/19 09:36:42;;;;;;;35.67;22.63;;;1.20;99.90;;;;;;4994400;28;20180;-65
2023/01/19 09:39:09;;;;;;;40.53;22.23;;;1.20;99.90;;;;;;4995600;28;20199;-65
2023/01/19 09:41:37;;;;;;;42.60;25.00;;;1.20;99.90;;;;;;4995588;28;20176;-65
2023/01/19 09:44:04;;;;;;;44.43;24.43;;;1.20;99.90;;;;;;5010386;28;20212;-65
2023/01/19 09:46:47;;;;;;;38.97;23.77;;;1.20;99.90;;;;;;4995350;28;20180;-65
2023/01/19 09:49:26;;;;;;;42.00;24.53;;;1.30;99.90;;;;;;4995842;28;20160;-65
2023/01/19 09:51:52;;;;;;;40.77;24.17;;;1.30;99.90;;;;;;4994207;28;20176;-65
2023/01/19 09:54:26;;;;;;;38.57;24.23;;;1.30;99.90;;;;;;5010434;28;20739;-65
2023/01/19 09:56:54;;;;;;;43.40;26.03;;;1.30;99.90;;;;;;4995317;28;20246;-65
2023/01/19 09:59:27;;;;;;;47.20;26.33;;;1.40;99.90;;;;;;4995258;28;20176;-64
2023/01/19 10:01:58;;;;;;;43.67;26.90;;;1.40;99.90;;;;;;4994805;28;20212;-64
2023/01/19 10:04:38;;;;;;;50.17;27.63;;;1.40;99.90;;;;;;4993932;28;20311;-64
2023/01/19 10:07:18;;;;;;;47.83;28.57;;;1.40;99.90;;;;;;4995134;28;20185;-64
2023/01/19 10:09:57;;;;;;;44.73;27.63;;;1.40;99.90;;;;;;4994976;28;20165;-64
2023/01/19 10:12:23;;;;;;;50.87;30.03;;;1.40;99.90;;;;;;4993736;28;20545;-64
2023/01/19 10:15:00;;;;;;;58.77;30.30;;;1.40;99.90;;;;;;4994925;28;20204;-64
2023/01/19 10:18:01;;;;;;;45.60;28.07;;;1.40;99.90;;;;;;4993594;28;20172;-64
2023/01/19 10:20:35;;;;;;;48.20;29.73;;;1.40;99.90;;;;;;4915888;29;20209;-64
2023/01/19 10:23:04;;;;;;;51.77;31.57;;;1.50;99.90;;;;;;4982669;28;20224;-64
2023/01/19 10:25:32;;;;;;;54.10;30.50;;;1.50;99.90;;;;;;4994908;28;20323;-64
2023/01/19 10:27:59;;;;;;;56.73;30.60;;;1.50;99.90;;;;;;4995179;28;20525;-64
2023/01/19 10:30:29;;;;;;;46.47;29.20;;;1.50;99.90;;;;;;4995388;28;20716;-67
2023/01/19 10:32:54;;;;;;;48.47;30.30;;;1.50;99.90;;;;;;4994682;28;20197;-66
2023/01/19 10:35:25;;;;;;;54.27;30.47;;;1.50;99.90;;;;;;4995323;28;20161;-66
2023/01/19 10:37:57;;;;;;;48.80;29.10;;;1.50;99.90;;;;;;4995980;28;20515;-68
2023/01/19 10:40:57;;;;;;;52.67;29.57;;;1.60;99.90;;;;;;4995201;28;20165;-66
2023/01/19 10:43:44;;;;;;;52.03;29.70;;;1.60;99.90;;;;;;4994816;28;20563;-67
2023/01/19 10:46:21;;;;;;;48.10;28.90;;;1.50;99.90;;;;;;4994428;28;20669;-67
2023/01/19 10:48:52;;;;;;;52.37;29.03;;;1.60;99.90;;;;;;4994628;28;20187;-67
2023/01/19 10:51:18;;;;;;;43.70;26.87;;;1.50;99.90;;;;;;5009888;28;20181;-66
2023/01/19 10:54:03;;;;;;;44.33;27.27;;;1.60;99.90;;;;;;4994828;28;20188;-68
2023/01/19 10:56:37;;;;;;;55.50;28.67;;;1.60;99.90;;;;;;4994977;28;20216;-66
2023/01/19 10:59:05;;;;;;;44.57;26.60;;;1.50;99.90;;;;;;4994525;28;20167;-68
2023/01/19 11:01:38;;;;;;;47.03;28.77;;;1.60;99.90;;;;;;5009360;28;20188;-67
2023/01/19 11:04:20;;;;;;;51.30;28.63;;;1.50;99.90;;;;;;5009221;28;20218;-67
2023/01/19 11:06:46;;;;;;;52.73;30.00;;;1.50;99.90;;;;;;4994536;28;20532;-67
2023/01/19 11:09:20;;;;;;;52.87;30.13;;;1.50;99.90;;;;;;4993057;28;20192;-66
2023/01/19 11:11:51;;;;;;;60.73;32.93;;;1.50;99.90;;;;;;4994381;28;20176;-66
2023/01/19 11:14:23;;;;;;;55.47;33.33;;;1.50;99.90;;;;;;5008436;28;20295;-66
2023/01/19 11:16:54;;;;;;;60.17;34.73;;;1.50;99.90;;;;;;4993834;28;20200;-66
2023/01/19 11:19:29;;;;;;;65.03;34.60;;;1.50;99.90;;;;;;4994174;28;20251;-66
2023/01/19 11:22:20;;;;;;;64.83;36.53;;;1.50;99.90;;;;;;5009250;28;20172;-66
2023/01/19 11:24:47;;;;;;;61.17;34.20;;;1.50;99.90;;;;;;4994574;28;20557;-66
2023/01/19 11:27:17;;;;;;;57.57;32.13;;;1.50;99.90;;;;;;4994460;28;20214;-65
2023/01/19 11:30:00;;;;;;;61.77;34.80;;;1.50;99.90;;;;;;5009133;28;20181;-65
2023/01/19 11:32:26;;;;;;;63.27;34.37;;;1.60;99.90;;;;;;5009016;28;20708;-66
2023/01/19 11:34:52;;;;;;;60.17;32.23;;;1.50;99.90;;;;;;4992561;28;20208;-66
2023/01/19 11:37:18;;;;;;;55.67;32.57;;;1.50;99.90;;;;;;4994222;28;20240;-66
2023/01/19 11:39:50;;;;;;;58.87;31.53;;;1.50;99.90;;;;;;4992704;28;20252;-66
2023/01/19 11:42:17;;;;;;;56.20;30.80;;;1.50;99.90;;;;;;5008859;28;20570;-66
2023/01/19 11:44:59;;;;;;;61.63;32.73;;;1.40;99.90;;;;;;4993636;28;20215;-66
2023/01/19 11:47:38;;;;;;;55.90;30.90;;;1.40;99.90;;;;;;5008828;28;20177;-66
2023/01/19 11:50:21;;;;;;;55.20;30.87;;;1.40;99.90;;;;;;4994266;28;20235;-66
2023/01/19 11:52:59;;;;;;;55.70;31.63;;;1.50;99.90;;;;;;4994070;28;20535;-66
2023/01/19 11:55:59;;;;;;;63.30;31.87;;;1.50;99.90;;;;;;4993747;28;20221;-66
2023/01/19 11:58:26;;;;;;;58.57;31.10;;;1.60;99.90;;;;;;5009149;28;20604;-66
2023/01/19 12:01:00;;;;;;;57.63;31.20;;;1.50;99.90;;;;;;5008570;28;20188;-66
2023/01/19 12:03:42;;;;;;;63.60;31.83;;;1.60;99.90;;;;;;4993564;28;20211;-66
2023/01/19 12:06:27;;;;;;;59.23;33.03;;;1.60;99.90;;;;;;4992491;28;20259;-66
2023/01/19 12:08:54;;;;;;;66.40;32.33;;;1.60;99.90;;;;;;4992606;28;20713;-66
2023/01/19 12:11:43;;;;;;;71.13;32.97;;;1.60;99.90;;;;;;4993572;28;20177;-66
2023/01/19 12:14:37;;;;;;;63.87;34.53;;;1.60;99.90;;;;;;5008616;28;20736;-66
2023/01/19 12:17:06;;;;;;;70.73;33.93;;;1.60;99.90;;;;;;4993450;28;20220;-66
2023/01/19 12:19:49;;;;;;;80.47;35.30;;;1.60;99.90;;;;;;5008798;28;20180;-66
2023/01/19 12:22:16;;;;;;;66.37;34.80;;;1.70;99.90;;;;;;4993805;28;20167;-66
2023/01/19 12:24:59;;;;;;;62.83;34.10;;;1.60;99.90;;;;;;4992427;28;20287;-66
2023/01/19 12:27:41;;;;;;;66.03;35.87;;;1.60;99.90;;;;;;4995444;28;20173;-66
2023/01/19 12:30:23;;;;;;;84.20;37.77;;;1.60;99.90;;;;;;4996706;28;20181;-66
2023/01/19 12:32:50;;;;;;;73.83;36.20;;;1.60;99.90;;;;;;4996654;28;20168;-66
2023/01/19 12:35:54;;;;;;;78.37;37.07;;;1.70;99.90;;;;;;4996766;28;20200;-66
2023/01/19 12:38:45;;;;;;;93.37;40.93;;;1.70;99.90;;;;;;4997037;28;20171;-66
2023/01/19 12:41:26;;;;;;;74.63;38.20;;;1.70;99.90;;;;;;4996605;28;20181;-66
2023/01/19 12:44:10;;;;;;;73.27;37.93;;;1.70;99.90;;;;;;4996290;28;20220;-66
2023/01/19 12:46:46;;;;;;;78.07;37.87;;;1.70;99.90;;;;;;4996422;28;20188;-66
2023/01/19 12:49:26;;;;;;;75.10;36.87;;;1.80;99.90;;;;;;4996618;28;20165;-65
2023/01/19 12:52:18;;;;;;;73.17;38.00;;;1.70;99.90;;;;;;4997568;28;20169;-66
2023/01/19 12:55:07;;;;;;;81.93;39.37;;;1.80;99.90;;;;;;4998036;28;20233;-67